Hazel Park, Michigan
Current Conditions -  °F | °C
As of 10:53 AM on Monday 26 Jan 2015 (Local Time) from KDET Reporting Station
Clear Clear  
Wind Chill: 10°   Ceiling: Unl
Heat Index: 20°   Visibility: 10mi
Dew Point:   Wind: 8mph
Humidity: 60%   Direction: 60°ENE
Pressure: 29.96"   Gusts: NA
Location:  42.46°N, 83.1°W
Report Text: KDET 261553Z 06007KT 10SM CLR M07/M13 A2996 RMK AO2 SLP156 T10671133
Loading
Personal Weather Stations






























Interactive Weather Map New forecast layout! Learn more

10-Day Weather Forecast

Advertisements
Track Severe Weather on mobile